New Midway, Maryland
Current Conditions -  °F | °C
As of 12:47 PM on Friday 24 Oct 2014 (Local Time) from KFDK Reporting Station
Clear Clear  
Wind Chill: 66°   Ceiling: Unl
Heat Index: 66°   Visibility: 10mi
Dew Point: 39°   Wind: 8mph
Humidity: 37%   Direction: 310°NW
Pressure: 29.99"   Gusts: NA
Location:  39.57°N, 77.29°W
Report Text: KFDK 241647Z 31007KT 10SM SKC 19/04 A2999
Loading
Personal Weather Stations






























Interactive Weather Map
Tropical Storm Tracking
New forecast layout! Learn more

10-Day Weather Forecast

Advertisements
Track Severe Weather on mobile